sensor_id;sensor_type;location;lat;lon;timestamp;P1;durP1;ratioP1;P2;durP2;ratioP2
37527;SDS011;23372;52.050;4.810;2022-12-11T00:00:08;108.93;;;38.00;;
37527;SDS011;23372;52.050;4.810;2022-12-11T00:02:35;97.70;;;35.20;;
37527;SDS011;23372;52.050;4.810;2022-12-11T00:05:01;102.90;;;37.57;;
37527;SDS011;23372;52.050;4.810;2022-12-11T00:07:26;102.87;;;35.67;;
37527;SDS011;23372;52.050;4.810;2022-12-11T00:09:52;103.73;;;36.47;;
37527;SDS011;23372;52.050;4.810;2022-12-11T00:12:17;106.33;;;37.97;;
37527;SDS011;23372;52.050;4.810;2022-12-11T00:14:43;104.10;;;36.67;;
37527;SDS011;23372;52.050;4.810;2022-12-11T00:17:08;97.17;;;37.70;;
37527;SDS011;23372;52.050;4.810;2022-12-11T00:19:34;93.70;;;36.73;;
37527;SDS011;23372;52.050;4.810;2022-12-11T00:22:00;91.27;;;37.10;;
37527;SDS011;23372;52.050;4.810;2022-12-11T00:24:25;91.67;;;33.83;;
37527;SDS011;23372;52.050;4.810;2022-12-11T00:26:51;94.20;;;34.80;;
37527;SDS011;23372;52.050;4.810;2022-12-11T00:29:16;92.53;;;37.87;;
37527;SDS011;23372;52.050;4.810;2022-12-11T00:31:42;97.77;;;36.53;;
37527;SDS011;23372;52.050;4.810;2022-12-11T00:34:08;81.73;;;34.17;;
37527;SDS011;23372;52.050;4.810;2022-12-11T00:36:36;85.30;;;35.23;;
37527;SDS011;23372;52.050;4.810;2022-12-11T00:39:02;86.07;;;34.47;;
37527;SDS011;23372;52.050;4.810;2022-12-11T00:41:29;85.87;;;35.33;;
37527;SDS011;23372;52.050;4.810;2022-12-11T00:43:55;87.50;;;33.87;;
37527;SDS011;23372;52.050;4.810;2022-12-11T00:46:20;81.50;;;35.83;;
37527;SDS011;23372;52.050;4.810;2022-12-11T00:48:46;90.03;;;37.57;;
37527;SDS011;23372;52.050;4.810;2022-12-11T00:51:14;72.70;;;32.87;;
37527;SDS011;23372;52.050;4.810;2022-12-11T00:53:40;81.47;;;34.10;;
37527;SDS011;23372;52.050;4.810;2022-12-11T00:56:13;80.60;;;34.93;;
37527;SDS011;23372;52.050;4.810;2022-12-11T00:58:40;68.57;;;30.00;;
37527;SDS011;23372;52.050;4.810;2022-12-11T01:01:11;71.77;;;32.13;;
37527;SDS011;23372;52.050;4.810;2022-12-11T01:03:38;72.13;;;31.07;;
37527;SDS011;23372;52.050;4.810;2022-12-11T01:06:04;70.80;;;32.00;;
37527;SDS011;23372;52.050;4.810;2022-12-11T01:08:31;68.57;;;32.70;;
37527;SDS011;23372;52.050;4.810;2022-12-11T01:11:04;74.23;;;32.20;;
37527;SDS011;23372;52.050;4.810;2022-12-11T01:13:31;69.53;;;30.60;;
37527;SDS011;23372;52.050;4.810;2022-12-11T01:15:57;72.97;;;31.57;;
37527;SDS011;23372;52.050;4.810;2022-12-11T01:18:23;75.90;;;31.17;;
37527;SDS011;23372;52.050;4.810;2022-12-11T01:20:49;58.73;;;27.33;;
37527;SDS011;23372;52.050;4.810;2022-12-11T01:23:15;70.63;;;29.77;;
37527;SDS011;23372;52.050;4.810;2022-12-11T01:25:41;62.33;;;30.20;;
37527;SDS011;23372;52.050;4.810;2022-12-11T01:28:07;64.00;;;27.47;;
37527;SDS011;23372;52.050;4.810;2022-12-11T01:30:34;60.13;;;27.47;;
37527;SDS011;23372;52.050;4.810;2022-12-11T01:33:00;66.80;;;30.33;;
37527;SDS011;23372;52.050;4.810;2022-12-11T01:35:26;69.27;;;30.73;;
37527;SDS011;23372;52.050;4.810;2022-12-11T01:37:52;72.57;;;30.63;;
37527;SDS011;23372;52.050;4.810;2022-12-11T01:40:18;68.87;;;31.73;;
37527;SDS011;23372;52.050;4.810;2022-12-11T01:42:45;74.83;;;30.70;;
37527;SDS011;23372;52.050;4.810;2022-12-11T01:47:59;67.07;;;30.00;;
37527;SDS011;23372;52.050;4.810;2022-12-11T01:51:03;64.40;;;29.20;;
37527;SDS011;23372;52.050;4.810;2022-12-11T01:53:33;66.27;;;30.53;;
37527;SDS011;23372;52.050;4.810;2022-12-11T01:56:02;66.30;;;29.67;;
37527;SDS011;23372;52.050;4.810;2022-12-11T01:58:29;69.60;;;30.77;;
37527;SDS011;23372;52.050;4.810;2022-12-11T02:00:57;68.07;;;29.83;;
37527;SDS011;23372;52.050;4.810;2022-12-11T02:03:24;65.57;;;28.90;;
37527;SDS011;23372;52.050;4.810;2022-12-11T02:05:51;65.10;;;29.93;;
37527;SDS011;23372;52.050;4.810;2022-12-11T02:08:16;68.33;;;33.17;;
37527;SDS011;23372;52.050;4.810;2022-12-11T02:10:47;76.23;;;31.00;;
37527;SDS011;23372;52.050;4.810;2022-12-11T02:13:53;70.93;;;30.67;;
37527;SDS011;23372;52.050;4.810;2022-12-11T02:16:28;65.63;;;29.23;;
37527;SDS011;23372;52.050;4.810;2022-12-11T02:19:06;70.57;;;32.00;;
37527;SDS011;23372;52.050;4.810;2022-12-11T02:21:38;71.03;;;29.03;;
37527;SDS011;23372;52.050;4.810;2022-12-11T02:29:48;59.43;;;27.13;;
37527;SDS011;23372;52.050;4.810;2022-12-11T02:32:26;59.47;;;26.60;;
37527;SDS011;23372;52.050;4.810;2022-12-11T02:35:03;59.10;;;26.83;;
37527;SDS011;23372;52.050;4.810;2022-12-11T02:37:40;60.07;;;27.70;;
37527;SDS011;23372;52.050;4.810;2022-12-11T02:40:08;59.70;;;27.03;;
37527;SDS011;23372;52.050;4.810;2022-12-11T02:42:37;62.17;;;27.10;;
37527;SDS011;23372;52.050;4.810;2022-12-11T02:45:07;65.47;;;27.93;;
37527;SDS011;23372;52.050;4.810;2022-12-11T02:47:34;72.40;;;29.47;;
37527;SDS011;23372;52.050;4.810;2022-12-11T02:50:03;61.43;;;28.10;;
37527;SDS011;23372;52.050;4.810;2022-12-11T02:52:34;68.00;;;29.20;;
37527;SDS011;23372;52.050;4.810;2022-12-11T02:55:01;62.97;;;28.10;;
37527;SDS011;23372;52.050;4.810;2022-12-11T02:57:38;61.63;;;26.27;;
37527;SDS011;23372;52.050;4.810;2022-12-11T03:00:16;55.60;;;26.30;;
37527;SDS011;23372;52.050;4.810;2022-12-11T03:02:43;53.47;;;24.77;;
37527;SDS011;23372;52.050;4.810;2022-12-11T03:05:10;55.27;;;24.73;;
37527;SDS011;23372;52.050;4.810;2022-12-11T03:07:37;48.53;;;22.73;;
37527;SDS011;23372;52.050;4.810;2022-12-11T03:10:05;51.20;;;22.63;;
37527;SDS011;23372;52.050;4.810;2022-12-11T03:12:35;50.13;;;24.03;;
37527;SDS011;23372;52.050;4.810;2022-12-11T03:15:05;51.53;;;23.70;;
37527;SDS011;23372;52.050;4.810;2022-12-11T03:17:45;47.70;;;21.93;;
37527;SDS011;23372;52.050;4.810;2022-12-11T03:22:56;50.87;;;24.90;;
37527;SDS011;23372;52.050;4.810;2022-12-11T03:26:16;55.37;;;26.03;;
37527;SDS011;23372;52.050;4.810;2022-12-11T03:31:12;47.30;;;23.43;;
37527;SDS011;23372;52.050;4.810;2022-12-11T03:33:46;47.87;;;23.50;;
37527;SDS011;23372;52.050;4.810;2022-12-11T03:36:15;52.77;;;22.70;;
37527;SDS011;23372;52.050;4.810;2022-12-11T03:38:46;50.87;;;23.10;;
37527;SDS011;23372;52.050;4.810;2022-12-11T03:41:16;51.53;;;24.23;;
37527;SDS011;23372;52.050;4.810;2022-12-11T03:43:43;53.33;;;23.27;;
37527;SDS011;23372;52.050;4.810;2022-12-11T03:46:10;47.83;;;23.07;;
37527;SDS011;23372;52.050;4.810;2022-12-11T03:48:39;50.87;;;22.60;;
37527;SDS011;23372;52.050;4.810;2022-12-11T03:51:07;48.17;;;22.97;;
37527;SDS011;23372;52.050;4.810;2022-12-11T03:53:33;46.10;;;22.30;;
37527;SDS011;23372;52.050;4.810;2022-12-11T03:56:02;49.60;;;22.67;;
37527;SDS011;23372;52.050;4.810;2022-12-11T03:58:29;51.10;;;22.03;;
37527;SDS011;23372;52.050;4.810;2022-12-11T04:00:55;48.87;;;22.37;;
37527;SDS011;23372;52.050;4.810;2022-12-11T04:03:20;47.40;;;21.87;;
37527;SDS011;23372;52.050;4.810;2022-12-11T04:05:47;53.83;;;23.93;;
37527;SDS011;23372;52.050;4.810;2022-12-11T04:08:14;50.03;;;23.40;;
37527;SDS011;23372;52.050;4.810;2022-12-11T04:10:42;55.47;;;23.87;;
37527;SDS011;23372;52.050;4.810;2022-12-11T04:13:08;56.23;;;23.57;;
37527;SDS011;23372;52.050;4.810;2022-12-11T04:15:34;52.60;;;22.83;;
37527;SDS011;23372;52.050;4.810;2022-12-11T04:18:01;52.50;;;23.60;;
37527;SDS011;23372;52.050;4.810;2022-12-11T04:20:45;49.23;;;24.60;;
37527;SDS011;23372;52.050;4.810;2022-12-11T04:23:29;61.90;;;25.87;;
37527;SDS011;23372;52.050;4.810;2022-12-11T04:26:14;54.90;;;24.23;;
37527;SDS011;23372;52.050;4.810;2022-12-11T04:28:41;56.77;;;25.07;;
37527;SDS011;23372;52.050;4.810;2022-12-11T04:31:11;58.83;;;25.70;;
37527;SDS011;23372;52.050;4.810;2022-12-11T04:33:44;53.37;;;24.03;;
37527;SDS011;23372;52.050;4.810;2022-12-11T04:36:10;55.13;;;25.80;;
37527;SDS011;23372;52.050;4.810;2022-12-11T04:38:36;52.80;;;24.10;;
37527;SDS011;23372;52.050;4.810;2022-12-11T04:41:06;54.77;;;24.17;;
37527;SDS011;23372;52.050;4.810;2022-12-11T04:43:33;51.67;;;24.20;;
37527;SDS011;23372;52.050;4.810;2022-12-11T04:46:00;56.03;;;24.20;;
37527;SDS011;23372;52.050;4.810;2022-12-11T04:48:30;56.60;;;24.93;;
37527;SDS011;23372;52.050;4.810;2022-12-11T04:50:55;50.97;;;23.27;;
37527;SDS011;23372;52.050;4.810;2022-12-11T04:53:21;53.93;;;24.67;;
37527;SDS011;23372;52.050;4.810;2022-12-11T04:55:47;47.60;;;22.63;;
37527;SDS011;23372;52.050;4.810;2022-12-11T04:58:12;48.53;;;24.20;;
37527;SDS011;23372;52.050;4.810;2022-12-11T05:00:39;49.80;;;22.37;;
37527;SDS011;23372;52.050;4.810;2022-12-11T05:03:05;43.27;;;21.73;;
37527;SDS011;23372;52.050;4.810;2022-12-11T05:05:30;48.97;;;23.40;;
37527;SDS011;23372;52.050;4.810;2022-12-11T05:07:56;52.67;;;24.37;;
37527;SDS011;23372;52.050;4.810;2022-12-11T05:10:21;45.13;;;21.60;;
37527;SDS011;23372;52.050;4.810;2022-12-11T05:12:47;47.70;;;22.37;;
37527;SDS011;23372;52.050;4.810;2022-12-11T05:15:13;41.73;;;20.80;;
37527;SDS011;23372;52.050;4.810;2022-12-11T05:17:38;45.53;;;21.30;;
37527;SDS011;23372;52.050;4.810;2022-12-11T05:20:04;43.60;;;20.67;;
37527;SDS011;23372;52.050;4.810;2022-12-11T05:22:30;44.50;;;20.87;;
37527;SDS011;23372;52.050;4.810;2022-12-11T05:24:55;46.60;;;21.33;;
37527;SDS011;23372;52.050;4.810;2022-12-11T05:27:21;43.83;;;20.30;;
37527;SDS011;23372;52.050;4.810;2022-12-11T05:29:47;45.97;;;22.43;;
37527;SDS011;23372;52.050;4.810;2022-12-11T05:32:13;43.07;;;20.43;;
37527;SDS011;23372;52.050;4.810;2022-12-11T05:34:38;41.83;;;20.57;;
37527;SDS011;23372;52.050;4.810;2022-12-11T05:37:04;44.03;;;20.23;;
37527;SDS011;23372;52.050;4.810;2022-12-11T05:39:29;41.07;;;19.47;;
37527;SDS011;23372;52.050;4.810;2022-12-11T05:41:55;42.77;;;19.87;;
37527;SDS011;23372;52.050;4.810;2022-12-11T05:44:20;39.87;;;19.43;;
37527;SDS011;23372;52.050;4.810;2022-12-11T05:46:46;37.50;;;17.40;;
37527;SDS011;23372;52.050;4.810;2022-12-11T05:49:12;40.93;;;19.10;;
37527;SDS011;23372;52.050;4.810;2022-12-11T05:51:37;34.77;;;18.03;;
37527;SDS011;23372;52.050;4.810;2022-12-11T05:54:04;38.93;;;18.17;;
37527;SDS011;23372;52.050;4.810;2022-12-11T05:56:31;35.63;;;17.50;;
37527;SDS011;23372;52.050;4.810;2022-12-11T05:58:59;40.90;;;17.67;;
37527;SDS011;23372;52.050;4.810;2022-12-11T06:01:27;33.40;;;16.67;;
37527;SDS011;23372;52.050;4.810;2022-12-11T06:03:55;34.87;;;16.50;;
37527;SDS011;23372;52.050;4.810;2022-12-11T06:06:22;36.47;;;16.60;;
37527;SDS011;23372;52.050;4.810;2022-12-11T06:08:49;34.20;;;16.73;;
37527;SDS011;23372;52.050;4.810;2022-12-11T06:11:18;32.80;;;16.67;;
37527;SDS011;23372;52.050;4.810;2022-12-11T06:13:44;33.27;;;16.80;;
37527;SDS011;23372;52.050;4.810;2022-12-11T06:16:10;32.37;;;15.40;;
37527;SDS011;23372;52.050;4.810;2022-12-11T06:18:36;32.67;;;16.20;;
37527;SDS011;23372;52.050;4.810;2022-12-11T06:21:10;30.63;;;16.17;;
37527;SDS011;23372;52.050;4.810;2022-12-11T06:23:37;32.70;;;16.00;;
37527;SDS011;23372;52.050;4.810;2022-12-11T06:26:03;39.90;;;17.23;;
37527;SDS011;23372;52.050;4.810;2022-12-11T06:28:28;35.13;;;15.50;;
37527;SDS011;23372;52.050;4.810;2022-12-11T06:30:57;34.33;;;18.13;;
37527;SDS011;23372;52.050;4.810;2022-12-11T06:33:23;39.70;;;19.63;;
37527;SDS011;23372;52.050;4.810;2022-12-11T06:35:49;44.30;;;19.93;;
37527;SDS011;23372;52.050;4.810;2022-12-11T06:38:15;42.27;;;19.37;;
37527;SDS011;23372;52.050;4.810;2022-12-11T06:40:41;43.00;;;19.37;;
37527;SDS011;23372;52.050;4.810;2022-12-11T06:43:06;38.67;;;18.73;;
37527;SDS011;23372;52.050;4.810;2022-12-11T06:45:32;44.03;;;19.53;;
37527;SDS011;23372;52.050;4.810;2022-12-11T06:47:58;47.47;;;21.50;;
37527;SDS011;23372;52.050;4.810;2022-12-11T06:50:23;47.47;;;21.63;;
37527;SDS011;23372;52.050;4.810;2022-12-11T06:52:49;45.80;;;21.63;;
37527;SDS011;23372;52.050;4.810;2022-12-11T06:55:14;46.33;;;20.87;;
37527;SDS011;23372;52.050;4.810;2022-12-11T06:57:40;49.37;;;22.30;;
37527;SDS011;23372;52.050;4.810;2022-12-11T07:00:06;49.57;;;20.60;;
37527;SDS011;23372;52.050;4.810;2022-12-11T07:02:32;50.67;;;23.30;;
37527;SDS011;23372;52.050;4.810;2022-12-11T07:04:58;45.60;;;21.63;;
37527;SDS011;23372;52.050;4.810;2022-12-11T07:07:23;50.83;;;22.10;;
37527;SDS011;23372;52.050;4.810;2022-12-11T07:09:50;47.13;;;21.33;;
37527;SDS011;23372;52.050;4.810;2022-12-11T07:12:16;47.10;;;20.87;;
37527;SDS011;23372;52.050;4.810;2022-12-11T07:14:41;53.00;;;22.73;;
37527;SDS011;23372;52.050;4.810;2022-12-11T07:17:07;49.23;;;20.60;;
37527;SDS011;23372;52.050;4.810;2022-12-11T07:19:32;47.70;;;21.33;;
37527;SDS011;23372;52.050;4.810;2022-12-11T07:21:58;48.70;;;20.97;;
37527;SDS011;23372;52.050;4.810;2022-12-11T07:24:24;48.03;;;21.50;;
37527;SDS011;23372;52.050;4.810;2022-12-11T07:26:49;55.33;;;22.60;;
37527;SDS011;23372;52.050;4.810;2022-12-11T07:29:15;45.20;;;21.43;;
37527;SDS011;23372;52.050;4.810;2022-12-11T07:31:40;46.30;;;21.17;;
37527;SDS011;23372;52.050;4.810;2022-12-11T07:34:06;48.37;;;21.53;;
37527;SDS011;23372;52.050;4.810;2022-12-11T07:36:32;48.03;;;22.83;;
37527;SDS011;23372;52.050;4.810;2022-12-11T07:38:58;48.77;;;22.00;;
37527;SDS011;23372;52.050;4.810;2022-12-11T07:41:25;48.70;;;22.97;;
37527;SDS011;23372;52.050;4.810;2022-12-11T07:43:53;47.50;;;21.03;;
37527;SDS011;23372;52.050;4.810;2022-12-11T07:46:20;48.07;;;22.60;;
37527;SDS011;23372;52.050;4.810;2022-12-11T07:48:47;44.33;;;21.40;;
37527;SDS011;23372;52.050;4.810;2022-12-11T07:51:32;48.37;;;22.20;;
37527;SDS011;23372;52.050;4.810;2022-12-11T07:54:00;40.97;;;19.80;;
37527;SDS011;23372;52.050;4.810;2022-12-11T07:56:29;39.77;;;19.67;;
37527;SDS011;23372;52.050;4.810;2022-12-11T07:59:00;44.20;;;20.90;;
37527;SDS011;23372;52.050;4.810;2022-12-11T08:01:28;45.33;;;22.73;;
37527;SDS011;23372;52.050;4.810;2022-12-11T08:03:54;42.07;;;20.20;;
37527;SDS011;23372;52.050;4.810;2022-12-11T08:06:24;44.27;;;21.43;;
37527;SDS011;23372;52.050;4.810;2022-12-11T08:08:55;48.50;;;22.77;;
37527;SDS011;23372;52.050;4.810;2022-12-11T08:11:21;45.67;;;23.50;;
37527;SDS011;23372;52.050;4.810;2022-12-11T08:13:47;45.17;;;22.30;;
37527;SDS011;23372;52.050;4.810;2022-12-11T08:16:13;47.63;;;24.17;;
37527;SDS011;23372;52.050;4.810;2022-12-11T08:18:40;52.53;;;23.80;;
37527;SDS011;23372;52.050;4.810;2022-12-11T08:21:28;50.47;;;26.33;;
37527;SDS011;23372;52.050;4.810;2022-12-11T08:23:53;45.47;;;21.53;;
37527;SDS011;23372;52.050;4.810;2022-12-11T08:26:21;46.50;;;22.97;;
37527;SDS011;23372;52.050;4.810;2022-12-11T08:28:49;51.40;;;25.53;;
37527;SDS011;23372;52.050;4.810;2022-12-11T08:31:15;48.07;;;24.40;;
37527;SDS011;23372;52.050;4.810;2022-12-11T08:33:41;51.20;;;24.80;;
37527;SDS011;23372;52.050;4.810;2022-12-11T08:36:09;50.33;;;24.83;;
37527;SDS011;23372;52.050;4.810;2022-12-11T08:38:37;53.80;;;25.07;;
37527;SDS011;23372;52.050;4.810;2022-12-11T08:41:08;52.63;;;26.83;;
37527;SDS011;23372;52.050;4.810;2022-12-11T08:43:41;55.20;;;26.63;;
37527;SDS011;23372;52.050;4.810;2022-12-11T08:46:07;53.03;;;25.70;;
37527;SDS011;23372;52.050;4.810;2022-12-11T08:48:34;59.63;;;28.70;;
37527;SDS011;23372;52.050;4.810;2022-12-11T08:51:02;49.13;;;24.87;;
37527;SDS011;23372;52.050;4.810;2022-12-11T08:53:29;56.07;;;26.47;;
37527;SDS011;23372;52.050;4.810;2022-12-11T08:58:28;57.17;;;25.10;;
37527;SDS011;23372;52.050;4.810;2022-12-11T09:00:53;49.33;;;24.57;;
37527;SDS011;23372;52.050;4.810;2022-12-11T09:03:20;50.43;;;24.33;;
37527;SDS011;23372;52.050;4.810;2022-12-11T09:05:45;50.30;;;23.20;;
37527;SDS011;23372;52.050;4.810;2022-12-11T09:08:11;46.23;;;24.47;;
37527;SDS011;23372;52.050;4.810;2022-12-11T09:10:36;53.63;;;24.50;;
37527;SDS011;23372;52.050;4.810;2022-12-11T09:13:02;48.90;;;23.53;;
37527;SDS011;23372;52.050;4.810;2022-12-11T09:15:28;46.73;;;23.13;;
37527;SDS011;23372;52.050;4.810;2022-12-11T09:17:53;50.77;;;22.90;;
37527;SDS011;23372;52.050;4.810;2022-12-11T09:20:19;47.13;;;23.97;;
37527;SDS011;23372;52.050;4.810;2022-12-11T09:22:44;51.23;;;23.97;;
37527;SDS011;23372;52.050;4.810;2022-12-11T09:25:10;50.57;;;23.83;;
37527;SDS011;23372;52.050;4.810;2022-12-11T09:27:35;48.67;;;24.23;;
37527;SDS011;23372;52.050;4.810;2022-12-11T09:30:01;54.17;;;24.27;;
37527;SDS011;23372;52.050;4.810;2022-12-11T09:32:28;50.17;;;24.67;;
37527;SDS011;23372;52.050;4.810;2022-12-11T09:34:54;49.73;;;23.43;;
37527;SDS011;23372;52.050;4.810;2022-12-11T09:37:19;52.63;;;27.17;;
37527;SDS011;23372;52.050;4.810;2022-12-11T09:39:45;54.80;;;25.77;;
37527;SDS011;23372;52.050;4.810;2022-12-11T09:42:54;52.03;;;27.63;;
37527;SDS011;23372;52.050;4.810;2022-12-11T09:45:00;52.20;;;23.97;;
37527;SDS011;23372;52.050;4.810;2022-12-11T09:49:55;54.13;;;25.43;;
37527;SDS011;23372;52.050;4.810;2022-12-11T09:55:19;49.77;;;23.63;;
37527;SDS011;23372;52.050;4.810;2022-12-11T10:00:39;49.93;;;24.50;;
37527;SDS011;23372;52.050;4.810;2022-12-11T10:03:29;52.13;;;25.30;;
37527;SDS011;23372;52.050;4.810;2022-12-11T10:06:14;50.57;;;22.33;;
37527;SDS011;23372;52.050;4.810;2022-12-11T10:14:20;53.03;;;23.07;;
37527;SDS011;23372;52.050;4.810;2022-12-11T10:17:16;48.97;;;22.90;;
37527;SDS011;23372;52.050;4.810;2022-12-11T10:19:44;52.13;;;22.60;;
37527;SDS011;23372;52.050;4.810;2022-12-11T10:22:13;46.97;;;22.50;;
37527;SDS011;23372;52.050;4.810;2022-12-11T10:24:50;57.20;;;26.77;;
37527;SDS011;23372;52.050;4.810;2022-12-11T10:27:23;84.40;;;40.00;;
37527;SDS011;23372;52.050;4.810;2022-12-11T10:30:15;55.23;;;26.27;;
37527;SDS011;23372;52.050;4.810;2022-12-11T10:32:48;47.03;;;22.77;;
37527;SDS011;23372;52.050;4.810;2022-12-11T10:35:35;74.00;;;37.30;;
37527;SDS011;23372;52.050;4.810;2022-12-11T10:40:42;49.30;;;23.67;;
37527;SDS011;23372;52.050;4.810;2022-12-11T10:43:13;47.47;;;22.43;;
37527;SDS011;23372;52.050;4.810;2022-12-11T10:45:39;49.60;;;24.50;;
37527;SDS011;23372;52.050;4.810;2022-12-11T10:48:13;76.37;;;42.10;;
37527;SDS011;23372;52.050;4.810;2022-12-11T10:50:39;65.33;;;36.33;;
37527;SDS011;23372;52.050;4.810;2022-12-11T10:53:16;55.13;;;28.63;;
37527;SDS011;23372;52.050;4.810;2022-12-11T10:55:44;53.57;;;26.63;;
37527;SDS011;23372;52.050;4.810;2022-12-11T10:58:16;53.53;;;25.83;;
37527;SDS011;23372;52.050;4.810;2022-12-11T11:00:43;52.77;;;26.43;;
37527;SDS011;23372;52.050;4.810;2022-12-11T11:03:22;58.33;;;25.30;;
37527;SDS011;23372;52.050;4.810;2022-12-11T11:06:00;55.73;;;23.63;;
37527;SDS011;23372;52.050;4.810;2022-12-11T11:08:48;52.20;;;25.17;;
37527;SDS011;23372;52.050;4.810;2022-12-11T11:13:45;53.10;;;23.63;;
37527;SDS011;23372;52.050;4.810;2022-12-11T11:16:12;66.03;;;29.47;;
37527;SDS011;23372;52.050;4.810;2022-12-11T11:18:41;58.63;;;26.00;;
37527;SDS011;23372;52.050;4.810;2022-12-11T11:21:17;48.20;;;24.23;;
37527;SDS011;23372;52.050;4.810;2022-12-11T11:23:44;58.20;;;27.20;;
37527;SDS011;23372;52.050;4.810;2022-12-11T11:26:10;51.53;;;23.50;;
37527;SDS011;23372;52.050;4.810;2022-12-11T11:28:36;54.27;;;25.63;;
37527;SDS011;23372;52.050;4.810;2022-12-11T11:31:06;44.87;;;22.27;;
37527;SDS011;23372;52.050;4.810;2022-12-11T11:33:35;50.00;;;23.37;;
37527;SDS011;23372;52.050;4.810;2022-12-11T11:36:16;50.07;;;23.40;;
37527;SDS011;23372;52.050;4.810;2022-12-11T11:38:45;50.83;;;23.17;;
37527;SDS011;23372;52.050;4.810;2022-12-11T11:41:39;45.93;;;22.63;;
37527;SDS011;23372;52.050;4.810;2022-12-11T11:44:13;55.43;;;26.27;;
37527;SDS011;23372;52.050;4.810;2022-12-11T11:46:52;59.00;;;26.43;;
37527;SDS011;23372;52.050;4.810;2022-12-11T11:52:29;53.77;;;23.37;;
37527;SDS011;23372;52.050;4.810;2022-12-11T11:55:13;50.73;;;23.03;;
37527;SDS011;23372;52.050;4.810;2022-12-11T11:57:55;56.07;;;24.00;;
37527;SDS011;23372;52.050;4.810;2022-12-11T12:00:29;54.17;;;24.23;;
37527;SDS011;23372;52.050;4.810;2022-12-11T12:02:56;52.00;;;23.93;;
37527;SDS011;23372;52.050;4.810;2022-12-11T12:05:32;56.60;;;24.23;;
37527;SDS011;23372;52.050;4.810;2022-12-11T12:19:12;62.80;;;25.90;;
37527;SDS011;23372;52.050;4.810;2022-12-11T12:21:46;54.93;;;23.87;;
37527;SDS011;23372;52.050;4.810;2022-12-11T12:32:35;59.07;;;25.33;;
37527;SDS011;23372;52.050;4.810;2022-12-11T12:35:35;57.27;;;24.73;;
37527;SDS011;23372;52.050;4.810;2022-12-11T12:38:11;56.57;;;23.27;;
37527;SDS011;23372;52.050;4.810;2022-12-11T12:49:06;55.93;;;25.70;;
37527;SDS011;23372;52.050;4.810;2022-12-11T12:51:38;57.73;;;26.30;;
37527;SDS011;23372;52.050;4.810;2022-12-11T12:54:05;58.23;;;27.47;;
37527;SDS011;23372;52.050;4.810;2022-12-11T12:56:33;54.77;;;25.47;;
37527;SDS011;23372;52.050;4.810;2022-12-11T12:59:01;55.90;;;25.50;;
37527;SDS011;23372;52.050;4.810;2022-12-11T13:01:27;55.13;;;24.07;;
37527;SDS011;23372;52.050;4.810;2022-12-11T13:03:58;53.33;;;24.10;;
37527;SDS011;23372;52.050;4.810;2022-12-11T13:09:09;54.87;;;24.40;;
37527;SDS011;23372;52.050;4.810;2022-12-11T13:11:46;55.13;;;24.83;;
37527;SDS011;23372;52.050;4.810;2022-12-11T13:16:44;55.73;;;25.13;;
37527;SDS011;23372;52.050;4.810;2022-12-11T13:19:32;59.37;;;24.60;;
37527;SDS011;23372;52.050;4.810;2022-12-11T13:24:32;49.97;;;23.50;;
37527;SDS011;23372;52.050;4.810;2022-12-11T13:27:10;53.73;;;23.27;;
37527;SDS011;23372;52.050;4.810;2022-12-11T13:29:47;55.10;;;24.40;;
37527;SDS011;23372;52.050;4.810;2022-12-11T13:34:41;57.77;;;24.33;;
37527;SDS011;23372;52.050;4.810;2022-12-11T13:37:20;51.33;;;22.33;;
37527;SDS011;23372;52.050;4.810;2022-12-11T13:40:19;52.57;;;22.60;;
37527;SDS011;23372;52.050;4.810;2022-12-11T13:42:56;52.83;;;23.20;;
37527;SDS011;23372;52.050;4.810;2022-12-11T13:45:36;49.97;;;23.23;;
37527;SDS011;23372;52.050;4.810;2022-12-11T13:48:15;49.53;;;23.57;;
37527;SDS011;23372;52.050;4.810;2022-12-11T13:50:45;51.07;;;23.47;;
37527;SDS011;23372;52.050;4.810;2022-12-11T13:53:12;49.23;;;23.47;;
37527;SDS011;23372;52.050;4.810;2022-12-11T13:55:40;50.70;;;22.67;;
37527;SDS011;23372;52.050;4.810;2022-12-11T13:58:19;56.90;;;24.60;;
37527;SDS011;23372;52.050;4.810;2022-12-11T14:01:20;55.53;;;23.80;;
37527;SDS011;23372;52.050;4.810;2022-12-11T14:03:52;51.67;;;23.73;;
37527;SDS011;23372;52.050;4.810;2022-12-11T14:06:23;54.80;;;24.20;;
37527;SDS011;23372;52.050;4.810;2022-12-11T14:08:52;49.30;;;24.37;;
37527;SDS011;23372;52.050;4.810;2022-12-11T14:11:22;58.80;;;24.43;;
37527;SDS011;23372;52.050;4.810;2022-12-11T14:13:51;45.20;;;22.03;;
37527;SDS011;23372;52.050;4.810;2022-12-11T14:16:20;56.23;;;24.47;;
37527;SDS011;23372;52.050;4.810;2022-12-11T14:18:47;55.37;;;23.77;;
37527;SDS011;23372;52.050;4.810;2022-12-11T14:21:22;52.80;;;23.10;;
37527;SDS011;23372;52.050;4.810;2022-12-11T14:23:50;55.90;;;23.73;;
37527;SDS011;23372;52.050;4.810;2022-12-11T14:26:25;52.13;;;23.73;;
37527;SDS011;23372;52.050;4.810;2022-12-11T14:28:52;52.67;;;23.47;;
37527;SDS011;23372;52.050;4.810;2022-12-11T14:31:22;50.17;;;23.80;;
37527;SDS011;23372;52.050;4.810;2022-12-11T14:34:11;53.13;;;23.47;;
37527;SDS011;23372;52.050;4.810;2022-12-11T14:36:58;62.13;;;24.43;;
37527;SDS011;23372;52.050;4.810;2022-12-11T14:39:30;54.77;;;24.37;;
37527;SDS011;23372;52.050;4.810;2022-12-11T14:42:04;53.63;;;25.30;;
37527;SDS011;23372;52.050;4.810;2022-12-11T14:44:40;55.03;;;25.30;;
37527;SDS011;23372;52.050;4.810;2022-12-11T14:47:22;54.77;;;25.17;;
37527;SDS011;23372;52.050;4.810;2022-12-11T14:49:58;63.33;;;26.47;;
37527;SDS011;23372;52.050;4.810;2022-12-11T14:52:52;57.47;;;25.20;;
37527;SDS011;23372;52.050;4.810;2022-12-11T14:57:52;54.40;;;23.83;;
37527;SDS011;23372;52.050;4.810;2022-12-11T15:03:00;55.43;;;24.53;;
37527;SDS011;23372;52.050;4.810;2022-12-11T15:05:31;56.03;;;24.50;;
37527;SDS011;23372;52.050;4.810;2022-12-11T15:08:02;57.17;;;25.80;;
37527;SDS011;23372;52.050;4.810;2022-12-11T15:11:07;54.73;;;25.03;;
37527;SDS011;23372;52.050;4.810;2022-12-11T15:13:38;52.67;;;26.03;;
37527;SDS011;23372;52.050;4.810;2022-12-11T15:16:17;52.77;;;26.37;;
37527;SDS011;23372;52.050;4.810;2022-12-11T15:18:46;63.33;;;26.53;;
37527;SDS011;23372;52.050;4.810;2022-12-11T15:21:14;53.67;;;24.33;;
37527;SDS011;23372;52.050;4.810;2022-12-11T15:26:17;59.47;;;27.30;;
37527;SDS011;23372;52.050;4.810;2022-12-11T15:29:00;53.43;;;24.47;;
37527;SDS011;23372;52.050;4.810;2022-12-11T15:31:29;61.13;;;28.73;;
37527;SDS011;23372;52.050;4.810;2022-12-11T15:33:56;66.50;;;29.07;;
37527;SDS011;23372;52.050;4.810;2022-12-11T15:38:54;55.97;;;27.13;;
37527;SDS011;23372;52.050;4.810;2022-12-11T15:41:20;64.38;;;30.05;;
37527;SDS011;23372;52.050;4.810;2022-12-11T15:43:50;48.73;;;23.53;;
37527;SDS011;23372;52.050;4.810;2022-12-11T15:46:18;45.33;;;22.07;;
37527;SDS011;23372;52.050;4.810;2022-12-11T15:48:45;44.27;;;20.93;;
37527;SDS011;23372;52.050;4.810;2022-12-11T15:51:12;41.20;;;20.40;;
37527;SDS011;23372;52.050;4.810;2022-12-11T15:53:37;94.27;;;40.13;;
37527;SDS011;23372;52.050;4.810;2022-12-11T15:56:03;130.47;;;50.63;;
37527;SDS011;23372;52.050;4.810;2022-12-11T15:58:29;41.90;;;20.20;;
37527;SDS011;23372;52.050;4.810;2022-12-11T16:00:55;40.70;;;19.90;;
37527;SDS011;23372;52.050;4.810;2022-12-11T16:03:22;86.37;;;36.50;;